Capitol Logistics 248


KPVD
Theodore Francis Green State Airport
Providence, Rhode Island, US
KMIA
Miami International Airport
Miami, Florida, US

Route Details

Aircraft Information
Primary: Boeing 767-300BDSF
Backup: Not Available
Route Data
Distance: 1351nm
Sched. Duration: 3h 14m
Avg. Duration: 2h 67m (-48m)
Times Flown: 3
Recm'd Route: JUMPR RIFLE J174 SWL CEBEE WETRO DIW AR22 JORAY HILEY7
Planned Altitude: 36,000ft
Origin Wx: KPVD 030251Z 22008KT 10SM OVC070 17/09 A2983 RMK AO2 RAB0158E11 SLP103 P0000 60000 T01670094 58007
Dest. Wx: KMIA 030253Z 04003KT 10SM TS FEW023CB BKN060 BKN120 BKN250 26/23 A3008 RMK AO2 LTG DSNT E AND SE RAE07 TSB47 SLP186 OCNL LTGICCC E-SE TS E-SE MOV NW P0000 60001 T02560233 53018
Notes:

Financial History
Total Freight: 260,049lbs
Average Load: 86,683lbs/flt
Fuel Used: 86,334lbs
Avg. Fuel Used: 28,778lbs/flt
Fuel Expense: $82,017
Avg. Fuel Expense: $27,339
Avg. Fuel Cost: $0.95/lbs
Total Gross Income: $363,638
Pilot Pay: $567
Total Expenses: $39,429
Total Revenue: $240,316
Average Revenue: $121,212.55